createdAt,value
2022-10-31T00:00:05.423Z,100748.97
2022-10-31T00:01:25.880Z,100749.19
2022-10-31T00:02:28.153Z,100745.59
2022-10-31T00:03:30.455Z,100750.56
2022-10-31T00:04:32.722Z,100745.88
2022-10-31T00:05:34.942Z,100746.97
2022-10-31T00:06:37.911Z,100748.06
2022-10-31T00:07:40.096Z,100748.06
2022-10-31T00:08:42.302Z,100745.28
2022-10-31T00:09:44.480Z,100748.31
2022-10-31T00:10:47.604Z,100746.63
2022-10-31T00:11:49.797Z,100744.72
2022-10-31T00:12:53.231Z,100751.09
2022-10-31T00:13:55.543Z,100744.13
2022-10-31T00:14:57.740Z,100752.97
2022-10-31T00:15:59.941Z,100743.81
2022-10-31T00:17:03.173Z,100751.28
2022-10-31T00:18:06.439Z,100746.03
2022-10-31T00:19:10.115Z,100755.41
2022-10-31T00:20:12.319Z,100760.97
2022-10-31T00:21:15.814Z,100758.19
2022-10-31T00:22:18.019Z,100757.59
2022-10-31T00:23:20.204Z,100759.28
2022-10-31T00:24:22.443Z,100761.22
2022-10-31T00:25:24.699Z,100758.72
2022-10-31T00:26:31.247Z,100754.28
2022-10-31T00:27:34.121Z,100761.72
2022-10-31T00:28:36.797Z,100760.91
2022-10-31T00:29:39.990Z,100759.22
2022-10-31T00:30:42.247Z,100759.47
2022-10-31T00:31:44.526Z,100757.81
2022-10-31T00:32:46.760Z,100758.88
2022-10-31T00:33:49.126Z,100765.28
2022-10-31T00:34:53.363Z,100770.81
2022-10-31T00:35:55.673Z,100768.56
2022-10-31T00:36:57.913Z,100766.63
2022-10-31T00:38:00.431Z,100768.00
2022-10-31T00:39:02.755Z,100766.31
2022-10-31T00:40:05.515Z,100760.78
2022-10-31T00:41:08.064Z,100769.34
2022-10-31T00:42:10.246Z,100768.53
2022-10-31T00:44:34.575Z,100764.91
2022-10-31T00:45:36.753Z,100764.06
2022-10-31T00:46:38.989Z,100763.22
2022-10-31T00:47:41.167Z,100762.38
2022-10-31T00:48:43.945Z,100766.25
2022-10-31T00:49:46.488Z,100770.97
2022-10-31T00:50:48.717Z,100765.69
2022-10-31T00:51:51.024Z,100770.63
2022-10-31T00:52:53.265Z,100770.63
2022-10-31T00:53:55.593Z,100759.81
2022-10-31T00:54:57.861Z,100768.94
2022-10-31T00:56:00.705Z,100760.91
2022-10-31T00:57:04.341Z,100770.31
2022-10-31T00:58:06.573Z,100767.78
2022-10-31T00:59:08.823Z,100766.97
2022-10-31T01:00:11.917Z,100768.88
2022-10-31T01:01:16.533Z,100765.56
2022-10-31T01:02:19.053Z,100761.66
2022-10-31T01:03:30.286Z,100768.31
2022-10-31T01:04:32.647Z,100764.69
2022-10-31T01:05:34.871Z,100766.66
2022-10-31T01:06:37.933Z,100766.66
2022-10-31T01:07:42.571Z,100764.13
2022-10-31T01:08:45.345Z,100773.53
2022-10-31T01:09:50.157Z,100768.00
2022-10-31T01:11:14.820Z,100780.97
2022-10-31T01:12:17.178Z,100778.22
2022-10-31T01:13:19.371Z,100778.22
2022-10-31T01:14:21.607Z,100779.31
2022-10-31T01:15:24.420Z,100780.41
2022-10-31T01:16:30.492Z,100777.06
2022-10-31T01:17:33.620Z,100764.34
2022-10-31T01:18:36.923Z,100772.38
2022-10-31T01:19:39.095Z,100775.41
2022-10-31T01:20:41.301Z,100776.22
2022-10-31T01:21:43.475Z,100773.72
2022-10-31T01:22:45.853Z,100773.72
2022-10-31T01:23:51.309Z,100769.25
2022-10-31T01:24:53.523Z,100772.28
2022-10-31T01:26:12.447Z,100774.19
2022-10-31T01:27:16.199Z,100771.69
2022-10-31T01:28:18.435Z,100777.22
2022-10-31T01:29:20.740Z,100777.47
2022-10-31T01:30:22.975Z,100780.25
2022-10-31T01:31:28.533Z,100777.72
2022-10-31T01:32:30.862Z,100769.44
2022-10-31T01:33:35.091Z,100780.50
2022-10-31T01:34:37.378Z,100778.81
2022-10-31T01:35:39.582Z,100785.44
2022-10-31T01:36:42.897Z,100781.84
2022-10-31T01:37:45.628Z,100780.16
2022-10-31T01:38:49.368Z,100777.41
2022-10-31T01:39:51.631Z,100774.63
2022-10-31T01:40:54.072Z,100780.44
2022-10-31T01:41:56.258Z,100776.81
2022-10-31T01:42:58.763Z,100781.50
2022-10-31T01:44:22.890Z,100785.97
2022-10-31T01:45:25.476Z,100779.00
2022-10-31T01:46:46.021Z,100775.16
2022-10-31T01:47:49.791Z,100785.38
2022-10-31T01:48:55.103Z,100778.41
2022-10-31T01:50:01.745Z,100786.72
2022-10-31T01:51:06.024Z,100779.53
2022-10-31T01:52:34.102Z,100782.28
2022-10-31T01:53:37.725Z,100783.63
2022-10-31T01:54:44.299Z,100783.63
2022-10-31T01:55:47.706Z,100778.34
2022-10-31T01:56:56.739Z,100782.78
2022-10-31T01:58:05.726Z,100778.34
2022-10-31T01:59:11.951Z,100785.81
2022-10-31T02:00:17.219Z,100777.50
2022-10-31T02:01:19.696Z,100783.31
2022-10-31T02:02:22.298Z,100777.78
2022-10-31T02:03:27.196Z,100774.16
2022-10-31T02:04:30.778Z,100784.38
2022-10-31T02:05:34.919Z,100782.72
2022-10-31T02:06:44.298Z,100784.66
2022-10-31T02:08:09.338Z,100780.22
2022-10-31T02:09:13.902Z,100783.22
2022-10-31T02:10:16.509Z,100784.91
2022-10-31T02:11:18.729Z,100781.28
2022-10-31T02:12:22.490Z,100780.47
2022-10-31T02:14:48.473Z,100790.66
2022-10-31T02:15:57.228Z,100781.56
2022-10-31T02:16:59.648Z,100786.25
2022-10-31T02:18:02.427Z,100783.72
2022-10-31T02:19:11.899Z,100786.50
2022-10-31T02:20:17.331Z,100786.50
2022-10-31T02:21:33.285Z,100792.00
2022-10-31T02:22:40.923Z,100788.69
2022-10-31T02:24:22.916Z,100787.81
2022-10-31T02:25:40.325Z,100790.59
2022-10-31T02:26:46.316Z,100788.94
2022-10-31T02:28:03.205Z,100795.56
2022-10-31T02:29:28.376Z,100793.06
2022-10-31T02:31:13.893Z,100794.13
2022-10-31T02:32:47.501Z,100793.28
2022-10-31T02:33:58.168Z,100795.22
2022-10-31T02:35:27.715Z,100800.19
2022-10-31T02:36:44.232Z,100799.31
2022-10-31T02:38:20.565Z,100804.28
2022-10-31T02:39:34.677Z,100796.00
2022-10-31T02:40:54.138Z,100792.91
2022-10-31T02:42:30.379Z,100804.22
2022-10-31T02:43:41.303Z,100801.66
2022-10-31T02:44:52.311Z,100792.56
2022-10-31T02:45:57.298Z,100798.91
2022-10-31T02:47:14.862Z,100804.69
2022-10-31T02:48:23.438Z,100801.09
2022-10-31T02:49:33.663Z,100803.88
2022-10-31T02:50:41.159Z,100795.84
2022-10-31T02:51:46.449Z,100800.50
2022-10-31T02:52:53.287Z,100798.00
2022-10-31T02:53:55.491Z,100798.00
2022-10-31T02:54:58.397Z,100799.94
2022-10-31T02:56:09.838Z,100795.50
2022-10-31T02:57:12.248Z,100801.84
2022-10-31T02:59:23.027Z,100805.69
2022-10-31T03:00:25.687Z,100811.47
2022-10-31T03:02:11.178Z,100811.72
2022-10-31T03:03:23.954Z,100813.41
2022-10-31T03:04:41.411Z,100801.50
2022-10-31T03:05:52.242Z,100804.53
2022-10-31T03:07:34.105Z,100805.88
2022-10-31T03:09:06.770Z,100806.72
2022-10-31T03:10:45.010Z,100799.50
2022-10-31T03:12:16.268Z,100803.63
2022-10-31T03:13:35.377Z,100804.69
2022-10-31T03:14:58.131Z,100811.31
2022-10-31T03:16:28.580Z,100810.72
2022-10-31T03:17:39.570Z,100807.13
2022-10-31T03:18:51.351Z,100808.22
2022-10-31T03:19:56.812Z,100815.66
2022-10-31T03:21:18.449Z,100816.75
2022-10-31T03:22:26.497Z,100809.78
2022-10-31T03:23:30.987Z,100807.28
2022-10-31T03:24:39.894Z,100810.03
2022-10-31T03:25:47.991Z,100813.88
2022-10-31T03:26:54.633Z,100813.88
2022-10-31T03:27:59.210Z,100798.66
2022-10-31T03:29:05.977Z,100814.16
2022-10-31T03:30:09.976Z,100812.72
2022-10-31T03:31:58.470Z,100808.88
2022-10-31T03:33:04.825Z,100815.22
2022-10-31T03:34:09.948Z,100816.59
2022-10-31T03:35:14.350Z,100814.66
2022-10-31T03:36:20.781Z,100812.16
2022-10-31T03:37:24.506Z,100825.09
2022-10-31T03:38:27.886Z,100816.81
2022-10-31T03:39:31.880Z,100810.47
2022-10-31T03:40:38.843Z,100817.06
2022-10-31T03:41:46.213Z,100813.47
2022-10-31T03:43:00.858Z,100818.16
2022-10-31T03:44:10.473Z,100820.09
2022-10-31T03:45:20.662Z,100824.78
2022-10-31T03:46:24.112Z,100821.16
2022-10-31T03:47:29.444Z,100827.56
2022-10-31T03:48:31.820Z,100825.88
2022-10-31T03:49:35.801Z,100823.09
2022-10-31T03:51:02.042Z,100818.66
2022-10-31T03:52:25.704Z,100826.13
2022-10-31T03:53:34.285Z,100827.19
2022-10-31T03:54:42.578Z,100832.72
2022-10-31T03:55:53.672Z,100828.28
2022-10-31T03:57:15.996Z,100830.22
2022-10-31T03:58:27.067Z,100833.81
2022-10-31T03:59:38.261Z,100829.63
2022-10-31T04:00:45.597Z,100836.81
2022-10-31T04:01:53.097Z,100832.63
2022-10-31T04:03:10.645Z,100827.09
2022-10-31T04:04:17.727Z,100829.88
2022-10-31T04:05:22.558Z,100830.94
2022-10-31T04:06:26.801Z,100835.03
2022-10-31T04:07:34.609Z,100833.34
2022-10-31T04:08:43.557Z,100833.34
2022-10-31T04:09:52.579Z,100834.22
2022-10-31T04:10:59.159Z,100832.53
2022-10-31T04:12:03.994Z,100841.66
2022-10-31T04:13:24.323Z,100833.63
2022-10-31T04:14:39.754Z,100833.88
2022-10-31T04:15:45.483Z,100838.53
2022-10-31T04:16:47.950Z,100832.19
2022-10-31T04:17:54.363Z,100829.69
2022-10-31T04:18:57.201Z,100832.69
2022-10-31T04:20:03.342Z,100829.06
2022-10-31T04:21:09.199Z,100830.41
2022-10-31T04:22:11.612Z,100833.16
2022-10-31T04:23:23.356Z,100830.66
2022-10-31T04:24:26.748Z,100827.06
2022-10-31T04:25:30.991Z,100837.50
2022-10-31T04:26:34.819Z,100835.84
2022-10-31T04:27:37.208Z,100844.13
2022-10-31T04:28:39.456Z,100836.94
2022-10-31T04:29:44.379Z,100838.84
2022-10-31T04:30:49.385Z,100843.53
2022-10-31T04:31:52.590Z,100844.38
2022-10-31T04:32:54.903Z,100836.59
2022-10-31T04:33:57.799Z,100834.66
2022-10-31T04:35:00.110Z,100843.19
2022-10-31T04:36:04.136Z,100842.38
2022-10-31T04:37:06.395Z,100843.19
2022-10-31T04:38:09.017Z,100846.16
2022-10-31T04:39:11.255Z,100846.16
2022-10-31T04:40:18.196Z,100843.66
2022-10-31T04:41:38.585Z,100840.28
2022-10-31T04:42:48.539Z,100851.34
2022-10-31T04:43:51.214Z,100845.81
2022-10-31T04:44:53.497Z,100849.66
2022-10-31T04:45:55.783Z,100844.13
2022-10-31T04:46:58.512Z,100845.47
2022-10-31T04:48:01.035Z,100843.56
2022-10-31T04:49:06.115Z,100849.31
2022-10-31T04:50:08.742Z,100842.13
2022-10-31T04:51:12.918Z,100849.53
2022-10-31T04:52:15.866Z,100851.47
2022-10-31T04:53:18.864Z,100840.69
2022-10-31T04:54:41.072Z,100840.94
2022-10-31T04:56:23.600Z,100845.59
2022-10-31T04:57:32.020Z,100850.31
2022-10-31T04:58:37.543Z,100847.78
2022-10-31T04:59:45.869Z,100847.78
2022-10-31T05:00:48.156Z,100845.25
2022-10-31T05:01:50.632Z,100847.19
2022-10-31T05:02:59.690Z,100849.13
2022-10-31T05:04:03.520Z,100847.69
2022-10-31T05:05:07.600Z,100852.34
2022-10-31T05:06:13.130Z,100849.84
2022-10-31T05:07:17.435Z,100849.00
2022-10-31T05:08:20.672Z,100845.41
2022-10-31T05:09:25.901Z,100855.59
2022-10-31T05:10:30.844Z,100853.94
2022-10-31T05:11:35.141Z,100855.84
2022-10-31T05:12:57.145Z,100853.34
2022-10-31T05:14:18.218Z,100850.59
2022-10-31T05:15:52.305Z,100854.44
2022-10-31T05:16:54.568Z,100847.22
2022-10-31T05:18:35.254Z,100856.31
2022-10-31T05:19:57.406Z,100846.63
2022-10-31T05:21:31.953Z,100855.13
2022-10-31T05:22:37.477Z,100843.28
2022-10-31T05:23:42.996Z,100858.16
2022-10-31T05:24:46.737Z,100851.81
2022-10-31T05:25:49.196Z,100848.19
2022-10-31T05:26:51.478Z,100853.13
2022-10-31T05:27:55.516Z,100850.38
2022-10-31T05:28:57.862Z,100854.19
2022-10-31T05:31:22.783Z,100850.84
2022-10-31T05:32:26.301Z,100859.13
2022-10-31T05:33:47.380Z,100854.91
2022-10-31T05:35:10.512Z,100856.84
2022-10-31T05:36:35.502Z,100851.59
2022-10-31T05:37:47.584Z,100859.00
2022-10-31T05:38:49.845Z,100862.84
2022-10-31T05:40:01.236Z,100860.31
2022-10-31T05:41:07.087Z,100859.75
2022-10-31T05:42:09.905Z,100860.00
2022-10-31T05:43:12.158Z,100856.63
2022-10-31T05:44:14.703Z,100866.84
2022-10-31T05:45:29.675Z,100863.22
2022-10-31T05:46:35.507Z,100868.97
2022-10-31T05:48:00.117Z,100863.72
2022-10-31T05:49:24.232Z,100862.28
2022-10-31T05:50:55.471Z,100873.56
2022-10-31T05:51:59.147Z,100870.78
2022-10-31T05:53:10.307Z,100873.75
2022-10-31T05:54:16.040Z,100874.00
2022-10-31T05:55:20.467Z,100869.81
2022-10-31T05:56:40.487Z,100877.25
2022-10-31T05:57:42.705Z,100870.06
2022-10-31T05:58:45.170Z,100873.91
2022-10-31T05:59:51.006Z,100876.91
2022-10-31T06:01:04.263Z,100880.72
2022-10-31T06:02:09.523Z,100873.56
2022-10-31T06:03:30.284Z,100884.81
2022-10-31T06:04:33.419Z,100881.47
2022-10-31T06:05:35.666Z,100880.59
2022-10-31T06:06:37.917Z,100880.84
2022-10-31T06:07:40.294Z,100885.53
2022-10-31T06:08:43.262Z,100884.69
2022-10-31T06:09:51.091Z,100879.41
2022-10-31T06:10:56.851Z,100886.00
2022-10-31T06:12:19.042Z,100885.19
2022-10-31T06:13:45.212Z,100886.25
2022-10-31T06:14:56.252Z,100883.50
2022-10-31T06:15:58.608Z,100891.19
2022-10-31T06:17:06.910Z,100889.50
2022-10-31T06:18:24.290Z,100883.13
2022-10-31T06:19:29.998Z,100883.13
2022-10-31T06:20:33.674Z,100887.56
2022-10-31T06:21:38.865Z,100883.97
2022-10-31T06:22:41.128Z,100885.88
2022-10-31T06:23:43.440Z,100889.50
2022-10-31T06:25:07.419Z,100890.31
2022-10-31T06:26:13.058Z,100889.50
2022-10-31T06:27:15.747Z,100891.75
2022-10-31T06:28:18.566Z,100889.63
2022-10-31T06:29:27.227Z,100897.66
2022-10-31T06:30:41.763Z,100895.50
2022-10-31T06:31:44.001Z,100901.59
2022-10-31T06:32:46.869Z,100894.75
2022-10-31T06:33:49.235Z,100894.28
2022-10-31T06:34:51.676Z,100902.09
2022-10-31T06:35:54.005Z,100902.44
2022-10-31T06:36:56.681Z,100900.03
2022-10-31T06:38:10.835Z,100901.25
2022-10-31T06:39:16.266Z,100901.38
2022-10-31T06:40:18.776Z,100914.44
2022-10-31T06:41:42.479Z,100916.47
2022-10-31T06:42:46.328Z,100916.34
2022-10-31T06:43:48.735Z,100910.06
2022-10-31T06:45:23.506Z,100925.19
2022-10-31T06:46:44.410Z,100922.31
2022-10-31T06:48:21.759Z,100916.41
2022-10-31T06:49:56.478Z,100922.44
2022-10-31T06:51:01.579Z,100921.19
2022-10-31T06:52:04.176Z,100922.97
2022-10-31T06:53:06.515Z,100919.22
2022-10-31T06:54:10.036Z,100917.41
2022-10-31T06:55:12.422Z,100928.31
2022-10-31T06:56:14.771Z,100926.25
2022-10-31T06:57:21.646Z,100930.53
2022-10-31T06:58:24.225Z,100932.88
2022-10-31T06:59:27.448Z,100929.13
2022-10-31T07:00:52.708Z,100931.50
2022-10-31T07:01:55.200Z,100928.59
2022-10-31T07:03:00.569Z,100928.44
2022-10-31T07:04:02.783Z,100929.34
2022-10-31T07:05:08.074Z,100931.38
2022-10-31T07:06:10.314Z,100937.00
2022-10-31T07:07:14.239Z,100938.16
2022-10-31T07:08:16.536Z,100929.09
2022-10-31T07:09:18.947Z,100936.66
2022-10-31T07:10:24.319Z,100930.34
2022-10-31T07:11:32.762Z,100928.53
2022-10-31T07:12:35.518Z,100930.31
2022-10-31T07:13:38.931Z,100936.75
2022-10-31T07:14:43.192Z,100933.47
2022-10-31T07:15:46.217Z,100936.91
2022-10-31T07:16:52.590Z,100932.88
2022-10-31T07:18:02.494Z,100929.69
2022-10-31T07:19:06.248Z,100938.66
2022-10-31T07:20:10.184Z,100941.56
2022-10-31T07:21:12.959Z,100944.69
2022-10-31T07:22:15.786Z,100943.44
2022-10-31T07:23:20.122Z,100949.09
2022-10-31T07:24:32.312Z,100946.47
2022-10-31T07:25:34.594Z,100941.31
2022-10-31T07:26:44.737Z,100942.25
2022-10-31T07:27:47.040Z,100939.88
2022-10-31T07:28:49.286Z,100942.19
2022-10-31T07:29:55.017Z,100945.34
2022-10-31T07:30:58.711Z,100941.28
2022-10-31T07:32:01.573Z,100948.00
2022-10-31T07:33:08.855Z,100943.66
2022-10-31T07:34:35.884Z,100943.75
2022-10-31T07:35:56.985Z,100948.31
2022-10-31T07:37:04.917Z,100952.50
2022-10-31T07:38:11.989Z,100949.00
2022-10-31T07:39:14.274Z,100945.97
2022-10-31T07:40:18.534Z,100945.75
2022-10-31T07:41:22.351Z,100948.88
2022-10-31T07:42:24.615Z,100941.44
2022-10-31T07:43:27.214Z,100945.94
2022-10-31T07:45:14.366Z,100945.16
2022-10-31T07:46:42.680Z,100951.59
2022-10-31T07:48:12.482Z,100952.19
2022-10-31T07:49:33.717Z,100953.06
2022-10-31T07:51:02.310Z,100957.28
2022-10-31T07:52:27.344Z,100952.28
2022-10-31T07:53:58.523Z,100956.50
2022-10-31T07:55:05.801Z,100955.41
2022-10-31T07:56:10.550Z,100950.69
2022-10-31T07:57:12.912Z,100943.47
2022-10-31T07:58:16.740Z,100950.72
2022-10-31T07:59:19.617Z,100947.16
2022-10-31T08:00:21.906Z,100946.06
2022-10-31T08:01:25.684Z,100946.66
2022-10-31T08:02:47.811Z,100951.41
2022-10-31T08:04:08.408Z,100951.97
2022-10-31T08:05:30.399Z,100959.75
2022-10-31T08:07:01.168Z,100951.72
2022-10-31T08:08:12.556Z,100950.63
2022-10-31T08:09:14.943Z,100954.78
2022-10-31T08:10:19.774Z,100950.91
2022-10-31T08:11:22.121Z,100955.34
2022-10-31T08:12:24.544Z,100953.41
2022-10-31T08:13:29.487Z,100950.63
2022-10-31T08:14:31.817Z,100950.63
2022-10-31T08:15:38.231Z,100957.00
2022-10-31T08:16:41.047Z,100955.03
2022-10-31T08:17:44.660Z,100953.94
2022-10-31T08:18:46.850Z,100958.41
2022-10-31T08:19:50.538Z,100947.28
2022-10-31T08:20:55.297Z,100944.47
2022-10-31T08:21:57.718Z,100959.50
2022-10-31T08:23:02.518Z,100949.16
2022-10-31T08:24:05.540Z,100945.53
2022-10-31T08:25:09.285Z,100952.75
2022-10-31T08:26:12.452Z,100945.22
2022-10-31T08:27:14.718Z,100944.34
2022-10-31T08:28:17.027Z,100942.09
2022-10-31T08:29:21.608Z,100937.88
2022-10-31T08:30:26.818Z,100939.53
2022-10-31T08:31:48.987Z,100940.91
2022-10-31T08:33:29.499Z,100938.63
2022-10-31T08:34:50.461Z,100943.34
2022-10-31T08:36:11.245Z,100946.34
2022-10-31T08:37:32.101Z,100944.09
2022-10-31T08:38:34.445Z,100943.75
2022-10-31T08:39:36.731Z,100942.59
2022-10-31T08:40:40.279Z,100938.94
2022-10-31T08:41:42.478Z,100936.66
2022-10-31T08:42:48.036Z,100939.94
2022-10-31T08:43:50.353Z,100934.06
2022-10-31T08:44:52.557Z,100935.34
2022-10-31T08:45:57.405Z,100939.78
2022-10-31T08:47:03.998Z,100946.69
2022-10-31T08:48:16.299Z,100936.03
2022-10-31T08:49:18.692Z,100932.63
2022-10-31T08:50:20.945Z,100931.16
2022-10-31T08:51:23.429Z,100934.41
2022-10-31T08:52:58.908Z,100936.59
2022-10-31T08:53:53.492Z,100937.59
2022-10-31T08:55:14.461Z,100929.09
2022-10-31T08:57:40.945Z,100941.47
2022-10-31T08:58:43.160Z,100933.53
2022-10-31T08:59:46.167Z,100935.16
2022-10-31T09:01:02.897Z,100935.34
2022-10-31T09:02:06.290Z,100933.00
2022-10-31T09:03:31.458Z,100942.94
2022-10-31T09:04:35.629Z,100938.94
2022-10-31T09:05:38.006Z,100934.91
2022-10-31T09:06:50.404Z,100932.56
2022-10-31T09:08:05.097Z,100934.69
2022-10-31T09:09:07.520Z,100938.75
2022-10-31T09:10:09.982Z,100933.94
2022-10-31T09:11:13.687Z,100936.34
2022-10-31T09:12:37.453Z,100938.75
2022-10-31T09:13:58.313Z,100931.97
2022-10-31T09:15:07.594Z,100930.72
2022-10-31T09:16:31.774Z,100931.19
2022-10-31T09:17:34.760Z,100933.06
2022-10-31T09:18:55.233Z,100933.19
2022-10-31T09:19:57.457Z,100934.22
2022-10-31T09:21:06.657Z,100933.31
2022-10-31T09:22:08.873Z,100927.94
2022-10-31T09:23:16.664Z,100931.78
2022-10-31T09:24:18.908Z,100928.88
2022-10-31T09:25:21.163Z,100930.75
2022-10-31T09:26:31.719Z,100931.78
2022-10-31T09:27:43.639Z,100938.13
2022-10-31T09:28:47.430Z,100935.25
2022-10-31T09:29:53.106Z,100929.84
2022-10-31T09:30:55.994Z,100932.88
2022-10-31T09:32:30.137Z,100938.38
2022-10-31T09:33:32.682Z,100945.03
2022-10-31T09:34:54.171Z,100949.72
2022-10-31T09:35:56.392Z,100940.66
2022-10-31T09:36:58.634Z,100945.13
2022-10-31T09:38:11.003Z,100943.38
2022-10-31T09:39:13.242Z,100941.09
2022-10-31T09:40:15.548Z,100942.13
2022-10-31T09:41:25.680Z,100944.28
2022-10-31T09:43:02.117Z,100941.69
2022-10-31T09:44:20.872Z,100939.09
2022-10-31T09:45:42.675Z,100935.66
2022-10-31T09:47:19.505Z,100937.53
2022-10-31T09:49:10.436Z,100934.63
2022-10-31T09:50:30.694Z,100934.84
2022-10-31T09:51:41.015Z,100931.72
2022-10-31T09:53:41.166Z,100939.16
2022-10-31T09:55:09.902Z,100937.72
2022-10-31T09:56:18.820Z,100939.91
2022-10-31T09:57:26.668Z,100938.44
2022-10-31T09:58:35.437Z,100941.44
2022-10-31T09:59:43.082Z,100940.28
2022-10-31T10:00:48.352Z,100936.91
2022-10-31T10:01:55.378Z,100938.25
2022-10-31T10:03:07.970Z,100941.22
2022-10-31T10:04:31.190Z,100937.16
2022-10-31T10:05:52.365Z,100933.75
2022-10-31T10:07:20.336Z,100929.97
2022-10-31T10:08:27.633Z,100933.78
2022-10-31T10:10:29.444Z,100917.13
2022-10-31T10:12:29.803Z,100920.97
2022-10-31T10:13:59.673Z,100921.50
2022-10-31T10:15:22.092Z,100915.56
2022-10-31T10:16:35.440Z,100920.84
2022-10-31T10:17:52.289Z,100920.53
2022-10-31T10:19:22.854Z,100919.69
2022-10-31T10:20:44.819Z,100914.09
2022-10-31T10:21:58.444Z,100926.97
2022-10-31T10:23:30.663Z,100906.19
2022-10-31T10:24:44.686Z,100909.81
2022-10-31T10:25:55.649Z,100905.00
2022-10-31T10:27:25.034Z,100916.75
2022-10-31T10:28:39.404Z,100913.09
2022-10-31T10:30:03.659Z,100911.97
2022-10-31T10:31:17.444Z,100912.81
2022-10-31T10:32:37.699Z,100907.69
2022-10-31T10:34:10.277Z,100912.97
2022-10-31T10:35:34.013Z,100900.59
2022-10-31T10:36:48.748Z,100903.09
2022-10-31T10:37:57.011Z,100904.75
2022-10-31T10:39:09.940Z,100909.56
2022-10-31T10:40:21.954Z,100910.88
2022-10-31T10:41:33.975Z,100903.59
2022-10-31T10:42:55.993Z,100907.22
2022-10-31T10:43:58.576Z,100907.75
2022-10-31T10:45:26.937Z,100899.00
2022-10-31T10:47:00.186Z,100902.34
2022-10-31T10:48:16.239Z,100900.88
2022-10-31T10:49:19.933Z,100899.72
2022-10-31T10:50:28.521Z,100903.03
2022-10-31T10:53:33.138Z,100893.94
2022-10-31T10:54:47.633Z,100887.72
2022-10-31T10:56:12.907Z,100883.78
2022-10-31T10:57:40.600Z,100882.28
2022-10-31T10:58:43.708Z,100881.13
2022-10-31T10:59:49.430Z,100881.63
2022-10-31T11:00:54.910Z,100882.16
2022-10-31T11:01:59.758Z,100880.97
2022-10-31T11:03:02.361Z,100875.06
2022-10-31T11:04:29.944Z,100872.75
2022-10-31T11:05:55.196Z,100877.22
2022-10-31T11:07:05.758Z,100862.84
2022-10-31T11:08:08.959Z,100871.78
2022-10-31T11:09:14.419Z,100869.47
2022-10-31T11:10:17.755Z,100863.50
2022-10-31T11:11:31.988Z,100865.50
2022-10-31T11:12:35.067Z,100861.53
2022-10-31T11:13:41.066Z,100860.69
2022-10-31T11:15:00.381Z,100862.38
2022-10-31T11:16:08.648Z,100867.97
2022-10-31T11:17:37.448Z,100866.84
2022-10-31T11:18:45.919Z,100858.72
2022-10-31T11:19:48.197Z,100860.69
2022-10-31T11:20:56.321Z,100855.94
2022-10-31T11:22:08.260Z,100859.88
2022-10-31T11:23:23.224Z,100863.84
2022-10-31T11:24:28.509Z,100852.94
2022-10-31T11:25:31.383Z,100853.25
2022-10-31T11:26:36.252Z,100845.97
2022-10-31T11:27:40.985Z,100844.31
2022-10-31T11:28:43.648Z,100852.72
2022-10-31T11:29:45.936Z,100843.81
2022-10-31T11:30:53.872Z,100843.28
2022-10-31T11:32:01.531Z,100842.81
2022-10-31T11:33:05.071Z,100840.28
2022-10-31T11:34:16.508Z,100846.25
2022-10-31T11:35:20.967Z,100841.78
2022-10-31T11:36:31.654Z,100840.97
2022-10-31T11:37:36.749Z,100845.75
2022-10-31T11:38:44.004Z,100845.25
2022-10-31T11:39:54.495Z,100841.88
2022-10-31T11:41:00.988Z,100834.94
2022-10-31T11:42:08.694Z,100834.09
2022-10-31T11:43:18.871Z,100837.25
2022-10-31T11:44:33.731Z,100831.09
2022-10-31T11:45:37.910Z,100833.09
2022-10-31T11:46:50.072Z,100826.97
2022-10-31T11:47:59.625Z,100828.97
2022-10-31T11:49:06.574Z,100825.63
2022-10-31T11:50:19.242Z,100835.53
2022-10-31T11:51:31.507Z,100824.63
2022-10-31T11:52:33.781Z,100829.75
2022-10-31T11:53:36.285Z,100830.38
2022-10-31T11:54:56.634Z,100828.72
2022-10-31T11:56:17.217Z,100825.75
2022-10-31T11:57:36.123Z,100823.22
2022-10-31T11:58:38.375Z,100824.72
2022-10-31T11:59:40.598Z,100824.22
2022-10-31T12:00:51.034Z,100810.81
2022-10-31T12:01:54.679Z,100815.91
2022-10-31T12:03:21.530Z,100812.28
2022-10-31T12:04:41.451Z,100823.31
2022-10-31T12:05:47.380Z,100811.56
2022-10-31T12:06:51.159Z,100815.84
2022-10-31T12:07:53.334Z,100814.19
2022-10-31T12:08:55.575Z,100809.22
2022-10-31T12:09:58.696Z,100813.19
2022-10-31T12:11:16.748Z,100812.69
2022-10-31T12:12:31.987Z,100808.22
2022-10-31T12:13:46.224Z,100812.81
2022-10-31T12:15:16.627Z,100804.72
2022-10-31T12:16:43.279Z,100798.91
2022-10-31T12:17:59.723Z,100793.63
2022-10-31T12:19:11.303Z,100797.56
2022-10-31T12:20:24.094Z,100801.84
2022-10-31T12:21:41.448Z,100798.03
2022-10-31T12:22:48.816Z,100794.66
2022-10-31T12:24:09.621Z,100796.66
2022-10-31T12:25:44.864Z,100795.63
2022-10-31T12:27:25.576Z,100788.69
2022-10-31T12:28:47.199Z,100794.91
2022-10-31T12:30:04.101Z,100791.91
2022-10-31T12:31:24.285Z,100786.94
2022-10-31T12:32:39.393Z,100784.78
2022-10-31T12:33:53.340Z,100785.06
2022-10-31T12:35:24.208Z,100788.53
2022-10-31T12:36:54.852Z,100786.03
2022-10-31T12:38:00.258Z,100789.50
2022-10-31T12:39:02.761Z,100785.03
2022-10-31T12:40:37.059Z,100790.44
2022-10-31T12:41:58.131Z,100779.00
2022-10-31T12:43:18.106Z,100777.66
2022-10-31T12:44:45.269Z,100776.63
2022-10-31T12:45:56.630Z,100778.09
2022-10-31T12:47:23.729Z,100778.75
2022-10-31T12:48:42.083Z,100777.41
2022-10-31T12:50:00.278Z,100772.41
2022-10-31T12:51:27.339Z,100774.72
2022-10-31T12:52:41.805Z,100773.38
2022-10-31T12:53:57.738Z,100777.63
2022-10-31T12:55:15.088Z,100773.47
2022-10-31T12:56:39.223Z,100767.34
2022-10-31T12:57:46.150Z,100770.47
2022-10-31T12:58:58.195Z,100763.53
2022-10-31T13:00:21.065Z,100764.94
2022-10-31T13:01:40.557Z,100765.28
2022-10-31T13:02:49.552Z,100764.75
2022-10-31T13:04:07.035Z,100762.25
2022-10-31T13:05:23.293Z,100763.72
2022-10-31T13:06:35.044Z,100755.63
2022-10-31T13:07:49.242Z,100759.56
2022-10-31T13:08:56.143Z,100756.25
2022-10-31T13:10:02.304Z,100762.16
2022-10-31T13:11:16.003Z,100754.91
2022-10-31T13:12:22.027Z,100760.81
2022-10-31T13:13:28.589Z,100758.34
2022-10-31T13:14:55.790Z,100755.03
2022-10-31T13:16:04.530Z,100758.16
2022-10-31T13:17:13.152Z,100754.50
2022-10-31T13:18:27.863Z,100742.78
2022-10-31T13:19:44.475Z,100748.41
2022-10-31T13:20:54.619Z,100744.25
2022-10-31T13:22:21.785Z,100748.19
2022-10-31T13:23:49.194Z,100742.91
2022-10-31T13:24:58.088Z,100741.22
2022-10-31T13:26:07.899Z,100739.56
2022-10-31T13:27:32.034Z,100743.50
2022-10-31T13:30:03.420Z,100733.75
2022-10-31T13:31:05.775Z,100740.50
2022-10-31T13:32:11.147Z,100744.47